Overview Statistics Trail Chart Weather Telemetry Raw packets
 

This is the latest recevied weather packets stored in our database for station/object PY2WOA-13. If no packets are shown the sender has not sent any weather packets the latest 10 day(s).

<< 13 14 15 16 17 18 19 >>
Time Temp. Humidity Pressure Rain* Wind** Luminosity Snow
1788008704 28.33° C 64% 1010.6 hPa - - - -
1788006903 27.78° C 68% 1011 hPa - - - -
1788005103 25° C 83% 1011.3 hPa - - - -
1788003303 23.89° C 93% 1011.2 hPa - - - -
1788001504 22.78° C 97% 1011.1 hPa - - - -
1787999704 22.22° C 100% 1010.6 hPa - - - -
1787997904 21.67° C 100% 1010.6 hPa - - - -
1787996104 21.67° C 100% 1010.3 hPa - - - -
1787994307 22.22° C 100% 1009.6 hPa - - - -
1787992503 22.78° C 100% 1008.8 hPa - - - -
1787990703 22.78° C 95% 1009.4 hPa - - - -
1787988904 24.44° C 70% 1008 hPa - - - -
1787987104 23.89° C 73% 1008.5 hPa - - - -
1787985304 24.44° C 72% 1008.7 hPa - - - -
1787983504 24.44° C 70% 1008.6 hPa - - - -
1787981703 24.44° C 72% 1008.7 hPa - - - -
1787979903 24.44° C 68% 1008.8 hPa - - - -
1787978104 25° C 70% 1009.2 hPa - - - -
1787976304 25° C 69% 1009.1 hPa - - - -
1787974504 25.56° C 66% 1009 hPa - - - -
1787972704 26.11° C 65% 1008.9 hPa - - - -
1787970904 26.11° C 63% 1008.7 hPa - - - -
1787969103 26.67° C 64% 1008.6 hPa - - - -
1787967303 26.67° C 61% 1008.4 hPa - - - -
1787965504 26.67° C 61% 1008.2 hPa - - - -

* Rain since midnight (hover to see other rain measurements)
** Current wind speed in m/s (hover to see current wind gust speed)